Kansai — JD3272 — position and weather

sailwx.info

Track history (hours):
 
Tides and Currents Weather Stations Pressure Air Temp Water Temp Dewpoint Dewpoint Depression Visibility Wind Speed Wind Dir Waves Ship Positions

Kansai

Last reported at 2017-Mar-19 18:33 UTC. Time now 2017-Mar-23 14:12 UTC.
Position N 33°49' E 132°30'.

Length 73 m; draft 4.2 m.

Type: Cargo ship. MMSI: 431003134.

Date/timePositionNaut miles runAvg speedWind from/ knotsBaromVisibWave heightAir tempDewpointWater temp
2017-Mar-19 18:33N 33°49' E 132°30'1110.3
2017-Mar-19 17:31N 33°56' E 132°40'115 3.8
2017-Mar-18 11:29N 34°41' E 134°49'1 0.1
2017-Mar-17 23:06N 34°41' E 134°50'610.3
2017-Mar-17 22:31N 34°37' E 134°56'8 8.6
2017-Mar-17 21:33N 34°34' E 135°05'  
2017-Mar-15 06:03N 33°59' E 135°00'612.2
2017-Mar-15 05:33N 34°05' E 134°60'2412.2
2017-Mar-15 03:33N 34°29' E 135°02'9 6.9
2017-Mar-15 02:13N 34°36' E 134°54'3 0.2
2017-Mar-14 05:25N 34°39' E 134°52'9 9.2
2017-Mar-14 04:24N 34°36' E 135°03'1012.0
2017-Mar-14 03:33N 34°37' E 135°15'10 4.7
2017-Mar-14 01:21N 34°38' E 135°28'0 0.0
2017-Mar-14 00:32N 34°38' E 135°28'0 0.0
2017-Mar-13 23:33N 34°38' E 135°28'0 0.0
2017-Mar-13 22:33N 34°38' E 135°28'0 0.0
2017-Mar-13 21:33N 34°38' E 135°28'0 0.0
2017-Mar-13 20:33N 34°38' E 135°28'0 0.0
2017-Mar-13 19:30N 34°38' E 135°28'0 0.0
2017-Mar-13 18:33N 34°38' E 135°28'0 0.0
2017-Mar-13 17:33N 34°38' E 135°28'0 0.0
2017-Mar-13 16:32N 34°38' E 135°28'0 0.0
2017-Mar-13 15:33N 34°38' E 135°28'0 0.0
2017-Mar-13 14:33N 34°38' E 135°28'0 0.0
2017-Mar-13 13:33N 34°38' E 135°28'0 0.0
2017-Mar-13 12:33N 34°38' E 135°28'0 0.0
2017-Mar-13 11:33N 34°38' E 135°28'0 0.0
2017-Mar-13 10:32N 34°38' E 135°28'0 0.0
2017-Mar-13 08:23N 34°38' E 135°28'0 0.0
2017-Mar-13 07:32N 34°38' E 135°28'0 0.0
2017-Mar-13 06:28N 34°38' E 135°28'0 0.0
2017-Mar-13 02:33N 34°38' E 135°28'0 0.0
2017-Mar-13 01:32N 34°38' E 135°28'0 0.0
2017-Mar-13 00:29N 34°38' E 135°28'0 0.0
2017-Mar-12 23:10N 34°38' E 135°28'1 0.9
2017-Mar-12 22:33N 34°39' E 135°27'6 6.2
2017-Mar-12 21:33N 34°37' E 135°20'5 5.3
2017-Mar-12 20:33N 34°42' E 135°24'0 0.0
2017-Mar-12 19:33N 34°42' E 135°24'0 0.0
2017-Mar-12 18:33N 34°42' E 135°24'0 0.0
2017-Mar-12 17:33N 34°42' E 135°24'0 0.0
2017-Mar-12 16:31N 34°42' E 135°24'0 0.1
2017-Mar-12 15:33N 34°42' E 135°24'0 0.0
2017-Mar-12 14:33N 34°42' E 135°24'0 0.1
2017-Mar-12 13:33N 34°42' E 135°24'0 0.0
2017-Mar-12 12:31N 34°42' E 135°24'0 0.0
2017-Mar-12 11:33N 34°42' E 135°24'0 0.0
2017-Mar-12 10:33N 34°42' E 135°24'0 0.0
2017-Mar-12 09:33N 34°42' E 135°24'0 0.0
2017-Mar-12 08:33N 34°42' E 135°24'0 0.0
2017-Mar-12 07:33N 34°42' E 135°24'0 0.0
2017-Mar-12 06:32N 34°42' E 135°24'0 0.0
2017-Mar-12 05:31N 34°42' E 135°24'0 0.0
2017-Mar-12 04:33N 34°42' E 135°24'0 0.0
2017-Mar-12 03:26N 34°42' E 135°24'0 0.0
2017-Mar-12 02:31N 34°42' E 135°24'0 0.0
2017-Mar-12 01:32N 34°42' E 135°24'0 0.0
2017-Mar-12 00:33N 34°42' E 135°24'0 0.1
2017-Mar-11 23:33N 34°42' E 135°24'0 0.0
2017-Mar-11 22:33N 34°42' E 135°24'2 1.9
2017-Mar-11 21:33N 34°40' E 135°22'1110.6
2017-Mar-11 20:32N 34°32' E 135°14'1110.7
2017-Mar-11 19:30N 34°24' E 135°05'218 7.5
2017-Mar-10 14:19N 34°56' E 139°27'811.0
2017-Mar-10 13:33N 35°02' E 139°35'1111.0
2017-Mar-10 12:33N 35°09' E 139°44'1110.5
2017-Mar-10 11:33N 35°20' E 139°43'1010.4
2017-Mar-10 10:33N 35°28' E 139°49'13 1.2
2017-Mar-09 23:09N 35°40' E 139°57'3 3.9
2017-Mar-09 22:22N 35°37' E 139°58'0 0.0
2017-Mar-09 21:23N 35°37' E 139°58'0 0.0
2017-Mar-09 20:22N 35°37' E 139°58'0 0.0
2017-Mar-09 19:33N 35°37' E 139°58'  
Track history (hours):
 
Tides and Currents Weather Stations Pressure Air Temp Water Temp Dewpoint Dewpoint Depression Visibility Wind Speed Wind Dir Waves Ship Positions

Kansai

Last reported at 2017-Mar-19 18:33 UTC. Time now 2017-Mar-23 14:12 UTC.
Position N 33°49' E 132°30'.

Length 73 m; draft 4.2 m.

Type: Cargo ship. MMSI: 431003134.

Date/timePositionNaut miles runAvg speedWind from/ knotsBaromVisibWave heightAir tempDewpointWater temp
2017-Mar-19 18:33N 33°49' E 132°30'1110.3
2017-Mar-19 17:31N 33°56' E 132°40'115 3.8
2017-Mar-18 11:29N 34°41' E 134°49'1 0.1
2017-Mar-17 23:06N 34°41' E 134°50'610.3
2017-Mar-17 22:31N 34°37' E 134°56'8 8.6
2017-Mar-17 21:33N 34°34' E 135°05'  
2017-Mar-15 06:03N 33°59' E 135°00'612.2
2017-Mar-15 05:33N 34°05' E 134°60'2412.2
2017-Mar-15 03:33N 34°29' E 135°02'9 6.9
2017-Mar-15 02:13N 34°36' E 134°54'3 0.2
2017-Mar-14 05:25N 34°39' E 134°52'9 9.2
2017-Mar-14 04:24N 34°36' E 135°03'1012.0
2017-Mar-14 03:33N 34°37' E 135°15'10 4.7
2017-Mar-14 01:21N 34°38' E 135°28'0 0.0
2017-Mar-14 00:32N 34°38' E 135°28'0 0.0
2017-Mar-13 23:33N 34°38' E 135°28'0 0.0
2017-Mar-13 22:33N 34°38' E 135°28'0 0.0
2017-Mar-13 21:33N 34°38' E 135°28'0 0.0
2017-Mar-13 20:33N 34°38' E 135°28'0 0.0
2017-Mar-13 19:30N 34°38' E 135°28'0 0.0
2017-Mar-13 18:33N 34°38' E 135°28'0 0.0
2017-Mar-13 17:33N 34°38' E 135°28'0 0.0
2017-Mar-13 16:32N 34°38' E 135°28'0 0.0
2017-Mar-13 15:33N 34°38' E 135°28'0 0.0
2017-Mar-13 14:33N 34°38' E 135°28'0 0.0
2017-Mar-13 13:33N 34°38' E 135°28'0 0.0
2017-Mar-13 12:33N 34°38' E 135°28'0 0.0
2017-Mar-13 11:33N 34°38' E 135°28'0 0.0
2017-Mar-13 10:32N 34°38' E 135°28'0 0.0
2017-Mar-13 08:23N 34°38' E 135°28'0 0.0
2017-Mar-13 07:32N 34°38' E 135°28'0 0.0
2017-Mar-13 06:28N 34°38' E 135°28'0 0.0
2017-Mar-13 02:33N 34°38' E 135°28'0 0.0
2017-Mar-13 01:32N 34°38' E 135°28'0 0.0
2017-Mar-13 00:29N 34°38' E 135°28'0 0.0
2017-Mar-12 23:10N 34°38' E 135°28'1 0.9
2017-Mar-12 22:33N 34°39' E 135°27'6 6.2
2017-Mar-12 21:33N 34°37' E 135°20'5 5.3
2017-Mar-12 20:33N 34°42' E 135°24'0 0.0
2017-Mar-12 19:33N 34°42' E 135°24'0 0.0
2017-Mar-12 18:33N 34°42' E 135°24'0 0.0
2017-Mar-12 17:33N 34°42' E 135°24'0 0.0
2017-Mar-12 16:31N 34°42' E 135°24'0 0.1
2017-Mar-12 15:33N 34°42' E 135°24'0 0.0
2017-Mar-12 14:33N 34°42' E 135°24'0 0.1
2017-Mar-12 13:33N 34°42' E 135°24'0 0.0
2017-Mar-12 12:31N 34°42' E 135°24'0 0.0
2017-Mar-12 11:33N 34°42' E 135°24'0 0.0
2017-Mar-12 10:33N 34°42' E 135°24'0 0.0
2017-Mar-12 09:33N 34°42' E 135°24'0 0.0
2017-Mar-12 08:33N 34°42' E 135°24'0 0.0
2017-Mar-12 07:33N 34°42' E 135°24'0 0.0
2017-Mar-12 06:32N 34°42' E 135°24'0 0.0
2017-Mar-12 05:31N 34°42' E 135°24'0 0.0
2017-Mar-12 04:33N 34°42' E 135°24'0 0.0
2017-Mar-12 03:26N 34°42' E 135°24'0 0.0
2017-Mar-12 02:31N 34°42' E 135°24'0 0.0
2017-Mar-12 01:32N 34°42' E 135°24'0 0.0
2017-Mar-12 00:33N 34°42' E 135°24'0 0.1
2017-Mar-11 23:33N 34°42' E 135°24'0 0.0
2017-Mar-11 22:33N 34°42' E 135°24'2 1.9
2017-Mar-11 21:33N 34°40' E 135°22'1110.6
2017-Mar-11 20:32N 34°32' E 135°14'1110.7
2017-Mar-11 19:30N 34°24' E 135°05'218 7.5
2017-Mar-10 14:19N 34°56' E 139°27'811.0
2017-Mar-10 13:33N 35°02' E 139°35'1111.0
2017-Mar-10 12:33N 35°09' E 139°44'1110.5
2017-Mar-10 11:33N 35°20' E 139°43'1010.4
2017-Mar-10 10:33N 35°28' E 139°49'13 1.2
2017-Mar-09 23:09N 35°40' E 139°57'3 3.9
2017-Mar-09 22:22N 35°37' E 139°58'0 0.0
2017-Mar-09 21:23N 35°37' E 139°58'0 0.0
2017-Mar-09 20:22N 35°37' E 139°58'0 0.0
2017-Mar-09 19:33N 35°37' E 139°58'  

Dump ship's entire track history